Time;durP1;ratioP1;P1;durP2;ratioP2;P2;SDS_P1;SDS_P2;PMS_P1;PMS_P2;Temp;Humidity;BMP_temperature;BMP_pressure;BME280_temperature;BME280_humidity;BME280_pressure;Samples;Min_cycle;Max_cycle;Signal;HPM_P1;HPM_P2
2021/03/26 00:01:28;;;;;;;17.90;10.43;;;6.80;92.00;;;;;;5066974;28;20048;-36
2021/03/26 00:03:55;;;;;;;14.70;10.98;;;6.80;92.00;;;;;;5067333;28;20036;-35
2021/03/26 00:06:30;;;;;;;14.02;10.18;;;6.80;92.10;;;;;;5067839;28;20101;-36
2021/03/26 00:08:56;;;;;;;16.15;11.48;;;6.70;92.10;;;;;;5067034;28;20032;-34
2021/03/26 00:11:24;;;;;;;14.27;11.02;;;6.70;92.10;;;;;;5067389;28;20101;-37
2021/03/26 00:13:51;;;;;;;14.07;10.85;;;6.60;92.20;;;;;;5066274;28;20809;-38
2021/03/26 00:16:18;;;;;;;14.60;9.93;;;6.70;92.20;;;;;;5067427;28;20054;-37
2021/03/26 00:18:50;;;;;;;15.52;10.73;;;6.60;92.30;;;;;;5066883;28;20033;-36
2021/03/26 00:21:19;;;;;;;13.40;10.37;;;6.60;92.30;;;;;;5066880;28;20025;-36
2021/03/26 00:23:45;;;;;;;16.30;11.60;;;6.50;92.40;;;;;;5066544;28;20638;-35
2021/03/26 00:26:10;;;;;;;15.63;10.95;;;6.50;92.40;;;;;;5066489;28;20483;-36
2021/03/26 00:28:36;;;;;;;15.27;10.35;;;6.50;92.40;;;;;;5064810;28;20025;-35
2021/03/26 00:31:02;;;;;;;14.50;10.50;;;6.50;92.50;;;;;;5066330;28;20322;-35
2021/03/26 00:33:28;;;;;;;16.48;11.38;;;6.50;92.50;;;;;;5066314;28;20068;-36
2021/03/26 00:35:54;;;;;;;16.33;11.25;;;6.40;92.60;;;;;;5065854;28;20334;-34
2021/03/26 00:38:24;;;;;;;18.83;11.82;;;6.40;92.60;;;;;;5067148;28;20086;-34
2021/03/26 00:40:52;;;;;;;17.83;11.98;;;6.40;92.60;;;;;;5066155;28;20024;-37
2021/03/26 00:43:19;;;;;;;16.42;11.23;;;6.40;92.70;;;;;;5066463;28;20040;-37
2021/03/26 00:45:45;;;;;;;17.00;12.38;;;6.40;92.70;;;;;;5066689;28;20167;-38
2021/03/26 00:48:11;;;;;;;16.27;11.75;;;6.30;92.80;;;;;;5066323;28;20099;-38
2021/03/26 00:50:43;;;;;;;21.88;12.38;;;6.40;92.90;;;;;;5065724;28;20024;-37
2021/03/26 00:53:13;;;;;;;17.33;12.50;;;6.40;92.90;;;;;;5066300;28;20369;-38
2021/03/26 00:55:39;;;;;;;18.35;12.85;;;6.40;92.90;;;;;;5065289;28;20120;-38
2021/03/26 00:58:04;;;;;;;17.60;13.02;;;6.50;92.90;;;;;;5065722;28;20414;-40
2021/03/26 01:00:32;;;;;;;18.88;12.43;;;6.50;92.90;;;;;;5065720;28;20733;-38
2021/03/26 01:03:00;;;;;;;15.82;12.75;;;6.50;92.90;;;;;;5066004;28;20816;-35
2021/03/26 01:05:33;;;;;;;18.25;13.18;;;6.50;92.90;;;;;;5066001;28;20114;-35
2021/03/26 01:07:59;;;;;;;19.42;13.82;;;6.50;92.90;;;;;;5066059;28;20036;-35
2021/03/26 01:10:30;;;;;;;19.27;13.95;;;6.50;93.00;;;;;;5065910;28;20021;-36
2021/03/26 01:12:57;;;;;;;22.05;14.85;;;6.50;93.00;;;;;;5065982;28;20040;-37
2021/03/26 01:15:25;;;;;;;17.80;13.23;;;6.40;93.00;;;;;;5066163;28;20024;-37
2021/03/26 01:17:53;;;;;;;21.63;14.23;;;6.40;93.10;;;;;;5065051;28;20035;-38
2021/03/26 01:20:26;;;;;;;21.27;14.30;;;6.30;93.20;;;;;;5066249;28;20028;-36
2021/03/26 01:22:51;;;;;;;18.83;13.85;;;6.40;93.20;;;;;;5065399;28;20020;-37
2021/03/26 01:25:22;;;;;;;21.40;14.70;;;6.30;93.30;;;;;;5065556;28;20092;-34
2021/03/26 01:27:48;;;;;;;19.85;13.73;;;6.40;93.40;;;;;;5064892;28;20033;-36
2021/03/26 01:30:17;;;;;;;20.67;14.45;;;6.40;93.30;;;;;;5065578;28;20033;-39
2021/03/26 01:32:43;;;;;;;18.85;13.77;;;6.40;93.30;;;;;;5064609;28;20040;-37
2021/03/26 01:35:10;;;;;;;21.42;15.02;;;6.40;93.30;;;;;;5065586;28;20028;-37
2021/03/26 01:37:36;;;;;;;21.58;15.25;;;6.40;93.40;;;;;;5065539;28;20066;-32
2021/03/26 01:40:05;;;;;;;21.30;14.80;;;6.40;93.50;;;;;;5064920;28;20481;-37
2021/03/26 01:42:33;;;;;;;19.45;14.82;;;6.40;93.50;;;;;;5064835;28;20028;-35
2021/03/26 01:45:00;;;;;;;21.02;15.35;;;6.40;93.50;;;;;;5064646;28;20048;-32
2021/03/26 01:47:29;;;;;;;21.88;15.68;;;6.40;93.60;;;;;;5065024;28;20028;-38
2021/03/26 01:49:55;;;;;;;22.27;16.60;;;6.50;93.60;;;;;;5065072;28;20099;-35
2021/03/26 01:52:21;;;;;;;20.77;15.18;;;6.50;93.60;;;;;;5064923;28;20037;-35
2021/03/26 01:54:46;;;;;;;21.33;15.65;;;6.60;93.60;;;;;;5064524;28;20025;-37
2021/03/26 01:57:13;;;;;;;22.90;15.85;;;6.60;93.50;;;;;;5065167;28;20035;-36
2021/03/26 01:59:40;;;;;;;22.35;15.85;;;6.70;93.50;;;;;;5064346;28;20037;-38
2021/03/26 02:02:11;;;;;;;20.48;15.60;;;6.60;93.50;;;;;;5065092;28;20146;-38
2021/03/26 02:04:42;;;;;;;21.70;16.00;;;6.70;93.50;;;;;;5064837;28;20099;-37
2021/03/26 02:07:07;;;;;;;21.77;15.23;;;6.60;93.60;;;;;;5064197;28;20020;-32
2021/03/26 02:09:36;;;;;;;22.00;15.50;;;6.70;93.60;;;;;;5064858;28;20036;-38
2021/03/26 02:12:31;;;;;;;24.63;16.92;;;6.60;93.60;;;;;;5064860;28;20040;-36
2021/03/26 02:15:23;;;;;;;22.23;15.70;;;6.60;93.70;;;;;;5061874;28;20041;-33
2021/03/26 02:17:50;;;;;;;22.10;15.52;;;6.60;93.80;;;;;;5064422;28;20047;-38
2021/03/26 02:20:33;;;;;;;21.08;15.52;;;6.50;93.80;;;;;;5064241;28;20021;-35
2021/03/26 02:23:11;;;;;;;21.92;16.08;;;6.50;93.90;;;;;;5064458;28;20028;-36
2021/03/26 02:25:44;;;;;;;22.73;16.83;;;6.40;93.90;;;;;;5064291;28;20133;-37
2021/03/26 02:28:10;;;;;;;22.33;16.15;;;6.40;94.00;;;;;;5063792;28;20458;-36
2021/03/26 02:30:43;;;;;;;20.70;15.13;;;6.30;94.00;;;;;;5064485;28;20506;-38
2021/03/26 02:33:09;;;;;;;21.02;15.23;;;6.30;94.10;;;;;;5064137;28;20179;-40
2021/03/26 02:35:38;;;;;;;22.05;15.38;;;6.30;94.20;;;;;;5063925;28;20122;-36
2021/03/26 02:38:27;;;;;;;22.33;16.10;;;6.20;94.20;;;;;;5064607;28;20357;-38
2021/03/26 02:41:05;;;;;;;27.65;16.10;;;6.20;94.30;;;;;;5061849;28;20074;-33
2021/03/26 02:43:41;;;;;;;21.52;15.57;;;6.10;94.30;;;;;;5063620;28;20028;-35
2021/03/26 02:46:50;;;;;;;26.08;17.27;;;6.10;94.40;;;;;;5062352;28;20055;-38
2021/03/26 02:49:18;;;;;;;20.83;14.35;;;6.10;94.40;;;;;;5063767;28;20039;-33
2021/03/26 02:52:26;;;;;;;20.40;14.82;;;6.10;94.40;;;;;;5063669;28;20025;-36
2021/03/26 02:55:03;;;;;;;21.23;15.68;;;6.00;94.40;;;;;;5063611;28;20047;-33
2021/03/26 02:57:33;;;;;;;18.70;14.18;;;6.00;94.40;;;;;;5063844;28;20674;-37
2021/03/26 03:00:17;;;;;;;20.55;14.77;;;6.00;94.50;;;;;;5063773;28;20416;-38
2021/03/26 03:02:44;;;;;;;20.88;14.93;;;5.90;94.50;;;;;;5063459;28;20530;-35
2021/03/26 03:05:22;;;;;;;19.92;15.18;;;5.90;94.50;;;;;;5063500;28;20423;-33
2021/03/26 03:07:53;;;;;;;19.15;14.48;;;5.90;94.60;;;;;;5064155;28;20118;-38
2021/03/26 03:10:38;;;;;;;20.08;14.93;;;6.00;94.60;;;;;;5063648;28;20147;-35
2021/03/26 03:13:26;;;;;;;21.35;15.20;;;6.10;94.60;;;;;;5063887;28;20040;-37
2021/03/26 03:16:02;;;;;;;22.40;15.70;;;6.10;94.60;;;;;;5063599;28;20384;-39
2021/03/26 03:18:32;;;;;;;21.15;14.85;;;6.20;94.50;;;;;;5062893;28;20016;-36
2021/03/26 03:21:13;;;;;;;22.85;15.88;;;6.20;94.50;;;;;;5063324;28;20142;-37
2021/03/26 03:23:51;;;;;;;25.23;16.08;;;6.30;94.60;;;;;;5063556;28;20036;-36
2021/03/26 03:26:20;;;;;;;25.40;16.95;;;6.40;94.90;;;;;;5063695;28;20041;-39
2021/03/26 03:28:54;;;;;;;23.50;16.10;;;6.40;94.60;;;;;;5063893;28;20480;-34
2021/03/26 03:31:36;;;;;;;24.08;17.00;;;6.50;94.90;;;;;;5063523;28;20028;-40
2021/03/26 03:34:10;;;;;;;23.95;16.35;;;6.60;94.70;;;;;;5063248;28;20140;-38
2021/03/26 03:36:47;;;;;;;25.67;17.17;;;6.70;94.70;;;;;;5063884;28;20181;-40
2021/03/26 03:39:46;;;;;;;27.60;17.85;;;6.70;94.60;;;;;;5063397;28;20195;-32
2021/03/26 03:42:25;;;;;;;23.00;16.73;;;6.80;94.70;;;;;;5063288;28;20093;-35
2021/03/26 03:45:06;;;;;;;25.45;17.92;;;6.80;94.70;;;;;;5063199;28;20028;-37
2021/03/26 03:47:39;;;;;;;24.38;17.60;;;6.90;94.70;;;;;;5063160;28;20024;-36
2021/03/26 03:50:21;;;;;;;26.23;18.17;;;6.90;94.70;;;;;;5063157;28;20028;-38
2021/03/26 03:53:22;;;;;;;25.02;18.08;;;7.00;94.80;;;;;;5062047;28;20036;-37
2021/03/26 03:55:58;;;;;;;25.00;17.92;;;7.00;94.70;;;;;;5063191;28;20547;-35
2021/03/26 03:58:31;;;;;;;23.23;16.65;;;7.10;94.70;;;;;;5060476;28;20024;-36
2021/03/26 04:01:05;;;;;;;27.42;18.70;;;7.10;94.70;;;;;;5062669;28;20048;-36
2021/03/26 04:03:45;;;;;;;24.98;18.13;;;7.20;94.70;;;;;;5060239;28;20093;-37
2021/03/26 04:06:19;;;;;;;25.60;18.45;;;7.20;94.70;;;;;;5062894;28;20044;-35
2021/03/26 04:09:05;;;;;;;27.13;18.00;;;7.30;94.70;;;;;;5060252;28;20024;-36
2021/03/26 04:11:32;;;;;;;22.55;17.25;;;7.30;94.70;;;;;;5062978;28;20191;-35
2021/03/26 04:14:11;;;;;;;25.00;17.25;;;7.40;94.60;;;;;;5062575;28;20033;-36
2021/03/26 04:16:42;;;;;;;24.23;16.92;;;7.40;94.60;;;;;;5063244;28;20029;-33
2021/03/26 04:19:17;;;;;;;25.33;17.85;;;7.40;94.60;;;;;;5062622;28;20112;-32
2021/03/26 04:21:45;;;;;;;28.02;17.75;;;7.40;94.60;;;;;;5062247;28;20047;-37
2021/03/26 04:24:17;;;;;;;28.92;19.20;;;7.50;94.70;;;;;;5059697;28;20024;-38
2021/03/26 04:26:49;;;;;;;24.40;18.15;;;7.50;94.70;;;;;;5063519;28;20165;-36
2021/03/26 04:29:26;;;;;;;24.40;17.80;;;7.50;94.70;;;;;;5063056;28;20008;-33
2021/03/26 04:32:11;;;;;;;27.02;18.27;;;7.50;94.70;;;;;;5066454;28;20041;-36
2021/03/26 04:34:39;;;;;;;28.05;18.33;;;7.60;94.80;;;;;;5063126;28;20410;-34
2021/03/26 04:37:31;;;;;;;25.83;17.60;;;7.60;94.70;;;;;;5066146;28;20052;-33
2021/03/26 04:40:07;;;;;;;26.42;18.35;;;7.60;94.80;;;;;;5059859;28;20106;-37
2021/03/26 04:42:45;;;;;;;26.65;17.80;;;7.70;94.80;;;;;;5065812;28;20052;-38
2021/03/26 04:45:29;;;;;;;24.00;16.85;;;7.70;94.80;;;;;;5066065;28;20056;-35
2021/03/26 04:48:09;;;;;;;24.70;17.85;;;7.70;94.80;;;;;;5065240;28;20025;-38
2021/03/26 04:50:43;;;;;;;26.23;17.77;;;7.70;94.80;;;;;;5055799;28;20028;-33
2021/03/26 04:53:21;;;;;;;30.02;20.15;;;7.70;94.80;;;;;;5065636;28;20110;-37
2021/03/26 04:56:03;;;;;;;29.65;19.60;;;7.70;94.70;;;;;;5055967;28;20025;-37
2021/03/26 04:58:32;;;;;;;29.02;20.92;;;7.70;95.00;;;;;;5066257;28;20028;-35
2021/03/26 05:01:06;;;;;;;29.30;19.48;;;7.80;94.90;;;;;;5065640;28;20155;-33
2021/03/26 05:03:34;;;;;;;26.10;18.65;;;7.80;94.80;;;;;;5065947;28;20039;-36
2021/03/26 05:06:15;;;;;;;27.10;19.02;;;7.80;94.90;;;;;;5054964;28;20170;-38
2021/03/26 05:08:45;;;;;;;26.52;18.63;;;7.80;94.80;;;;;;5065771;28;20020;-39
2021/03/26 05:11:13;;;;;;;28.38;18.92;;;7.90;94.80;;;;;;5054416;28;20025;-35
2021/03/26 05:13:44;;;;;;;34.28;23.17;;;7.90;95.00;;;;;;5065550;28;20052;-39
2021/03/26 05:16:24;;;;;;;31.33;22.42;;;7.90;95.20;;;;;;5065326;28;20382;-36
2021/03/26 05:19:11;;;;;;;34.65;23.58;;;7.90;95.20;;;;;;5065831;28;20120;-36
2021/03/26 05:21:46;;;;;;;28.88;20.63;;;8.00;95.20;;;;;;5055566;28;20140;-38
2021/03/26 05:24:34;;;;;;;30.00;20.45;;;8.00;95.10;;;;;;5065615;28;20017;-34
2021/03/26 05:27:00;;;;;;;25.65;18.63;;;8.00;95.00;;;;;;5057149;28;20093;-37
2021/03/26 05:29:26;;;;;;;29.67;19.80;;;8.10;95.00;;;;;;5065608;28;20844;-36
2021/03/26 05:32:07;;;;;;;28.42;18.98;;;8.10;95.00;;;;;;5053986;28;20721;-36
2021/03/26 05:34:49;;;;;;;28.05;19.38;;;8.10;95.00;;;;;;5065001;28;20070;-37
2021/03/26 05:37:32;;;;;;;24.30;18.00;;;8.10;95.00;;;;;;5055814;28;20123;-37
2021/03/26 05:40:20;;;;;;;27.10;17.50;;;8.10;95.00;;;;;;5064996;28;20481;-34
2021/03/26 05:43:12;;;;;;;30.48;20.23;;;8.10;95.00;;;;;;5065079;28;20074;-33
2021/03/26 05:45:55;;;;;;;30.85;20.23;;;8.10;95.00;;;;;;5064710;28;20028;-35
2021/03/26 05:48:32;;;;;;;29.98;20.17;;;8.10;95.10;;;;;;5065711;28;20039;-35
2021/03/26 05:51:13;;;;;;;26.98;18.75;;;8.10;95.00;;;;;;5064959;28;20024;-36
2021/03/26 05:53:49;;;;;;;28.27;18.98;;;8.20;95.00;;;;;;5064867;28;20461;-37
2021/03/26 05:56:37;;;;;;;27.55;18.20;;;8.10;95.00;;;;;;5065290;28;20086;-35
2021/03/26 05:59:24;;;;;;;29.45;19.73;;;8.20;95.00;;;;;;5064776;28;20097;-39
2021/03/26 06:02:30;;;;;;;30.35;19.73;;;8.10;95.10;;;;;;5065387;28;20044;-35
2021/03/26 06:05:21;;;;;;;30.35;20.50;;;8.20;95.40;;;;;;5045186;28;20102;-36
2021/03/26 06:08:14;;;;;;;28.45;19.25;;;8.20;95.20;;;;;;5060518;28;20024;-39
2021/03/26 06:11:10;;;;;;;29.60;20.35;;;8.20;95.10;;;;;;5064738;28;20055;-37
2021/03/26 06:13:53;;;;;;;25.05;18.33;;;8.30;95.10;;;;;;5056349;28;20084;-35
2021/03/26 06:16:30;;;;;;;30.67;20.85;;;8.30;95.10;;;;;;5064844;28;20024;-34
2021/03/26 06:19:33;;;;;;;26.88;19.00;;;8.30;95.10;;;;;;5064663;28;20025;-37
2021/03/26 06:22:22;;;;;;;28.33;18.60;;;8.30;95.00;;;;;;5064716;28;20043;-38
2021/03/26 06:25:02;;;;;;;27.15;19.52;;;8.30;95.00;;;;;;5064194;28;20166;-37
2021/03/26 06:27:49;;;;;;;32.92;21.98;;;8.40;95.00;;;;;;5064165;28;20498;-36
2021/03/26 06:30:39;;;;;;;27.13;19.42;;;8.40;95.00;;;;;;5044988;28;20448;-38
2021/03/26 06:33:22;;;;;;;28.83;20.25;;;8.40;95.00;;;;;;5062638;28;20042;-38
2021/03/26 06:36:01;;;;;;;28.85;20.75;;;8.50;95.00;;;;;;5064038;28;20025;-39
2021/03/26 06:38:47;;;;;;;23.23;17.05;;;8.50;95.00;;;;;;5064295;28;20070;-33
2021/03/26 06:41:38;;;;;;;28.10;18.17;;;8.60;95.00;;;;;;5064144;28;20111;-38
2021/03/26 06:44:42;;;;;;;31.25;19.60;;;8.60;95.00;;;;;;5062364;28;20097;-35
2021/03/26 06:47:28;;;;;;;28.88;19.33;;;8.60;94.90;;;;;;5064103;28;20029;-35
2021/03/26 06:50:03;;;;;;;30.17;19.25;;;8.70;94.90;;;;;;5063998;28;20475;-38
2021/03/26 06:52:31;;;;;;;29.00;19.23;;;8.70;94.80;;;;;;5059138;28;20040;-41
2021/03/26 06:55:26;;;;;;;30.45;21.15;;;8.80;94.80;;;;;;5063103;28;20141;-38
2021/03/26 06:58:03;;;;;;;31.98;21.65;;;8.80;94.90;;;;;;5060031;28;20176;-37
2021/03/26 07:00:44;;;;;;;32.08;21.50;;;8.90;94.90;;;;;;5061953;28;20136;-32
2021/03/26 07:03:54;;;;;;;32.92;21.20;;;8.90;94.80;;;;;;5062478;28;20062;-37
2021/03/26 07:06:35;;;;;;;27.13;18.50;;;9.00;94.80;;;;;;5063617;28;20054;-37
2021/03/26 07:09:41;;;;;;;29.63;20.08;;;9.00;94.70;;;;;;5062450;28;20571;-40
2021/03/26 07:12:10;;;;;;;29.83;21.38;;;9.00;94.70;;;;;;5043146;28;20117;-36
2021/03/26 07:15:06;;;;;;;31.58;21.92;;;9.10;94.60;;;;;;5061976;28;20044;-32
2021/03/26 07:17:46;;;;;;;36.78;24.08;;;9.10;94.60;;;;;;5062655;28;20028;-37
2021/03/26 07:20:36;;;;;;;33.75;22.92;;;9.20;94.70;;;;;;5061359;28;20040;-34
2021/03/26 07:23:34;;;;;;;35.00;22.80;;;9.20;94.60;;;;;;5046328;28;20028;-37
2021/03/26 07:26:19;;;;;;;33.47;23.35;;;9.30;94.60;;;;;;5046108;28;20452;-38
2021/03/26 07:29:29;;;;;;;36.42;23.52;;;9.40;94.60;;;;;;5062481;28;20059;-36
2021/03/26 07:32:18;;;;;;;32.67;22.73;;;9.40;94.50;;;;;;5062342;28;20032;-36
2021/03/26 07:35:10;;;;;;;29.58;21.50;;;9.50;94.50;;;;;;5063553;28;20230;-35
2021/03/26 07:38:26;;;;;;;32.10;21.27;;;9.50;94.40;;;;;;5041837;28;20021;-36
2021/03/26 07:41:29;;;;;;;31.13;22.10;;;9.60;94.30;;;;;;5043696;28;20033;-34
2021/03/26 07:44:18;;;;;;;30.73;21.33;;;9.70;94.20;;;;;;5063592;28;20360;-34
2021/03/26 07:47:21;;;;;;;30.02;21.85;;;9.80;94.20;;;;;;5052165;28;20207;-37
2021/03/26 07:50:08;;;;;;;33.70;21.57;;;9.80;94.10;;;;;;5063647;28;20615;-35
2021/03/26 07:52:40;;;;;;;33.08;21.67;;;9.90;94.00;;;;;;5063351;28;20041;-37
2021/03/26 07:55:36;;;;;;;31.95;22.67;;;9.80;94.00;;;;;;5063462;28;20326;-37
2021/03/26 07:58:20;;;;;;;32.47;22.35;;;9.80;94.00;;;;;;5063090;28;20801;-35
2021/03/26 08:01:06;;;;;;;34.65;23.38;;;9.80;94.10;;;;;;5063320;28;20162;-35
2021/03/26 08:04:10;;;;;;;35.80;23.98;;;9.70;94.10;;;;;;5044379;28;20123;-38
2021/03/26 08:07:00;;;;;;;36.30;25.30;;;9.70;94.30;;;;;;5064928;28;20513;-38
2021/03/26 08:10:13;;;;;;;38.92;25.45;;;9.60;94.30;;;;;;5064432;28;20514;-38
2021/03/26 08:13:19;;;;;;;32.72;22.88;;;9.60;94.30;;;;;;5056395;28;20079;-36
2021/03/26 08:15:57;;;;;;;32.05;22.48;;;9.60;94.30;;;;;;5066891;28;20089;-35
2021/03/26 08:18:53;;;;;;;34.42;23.83;;;9.70;94.40;;;;;;5067802;28;20086;-35
2021/03/26 08:21:31;;;;;;;32.55;23.17;;;9.60;94.50;;;;;;5066943;28;20047;-38
2021/03/26 08:24:19;;;;;;;35.22;23.77;;;9.70;94.40;;;;;;5047474;28;20029;-34
2021/03/26 08:27:21;;;;;;;39.67;25.98;;;9.70;94.30;;;;;;5063593;28;20055;-36
2021/03/26 08:30:23;;;;;;;36.53;24.05;;;9.80;94.50;;;;;;5064144;28;20119;-35
2021/03/26 08:33:25;;;;;;;30.88;22.75;;;9.80;94.30;;;;;;5065648;28;20152;-36
2021/03/26 08:36:29;;;;;;;35.95;22.95;;;9.90;94.30;;;;;;5066145;28;20031;-36
2021/03/26 08:39:17;;;;;;;32.17;22.92;;;10.00;94.20;;;;;;5066422;28;20034;-38
2021/03/26 08:42:06;;;;;;;30.70;21.27;;;10.00;94.10;;;;;;5066107;28;20086;-37
2021/03/26 08:44:34;;;;;;;30.88;21.83;;;10.10;94.20;;;;;;5065902;28;20115;-37
2021/03/26 08:47:02;;;;;;;31.75;22.17;;;10.10;94.10;;;;;;5066307;28;20024;-40
2021/03/26 08:49:59;;;;;;;31.27;20.75;;;10.10;94.00;;;;;;5066685;28;20536;-37
2021/03/26 08:52:36;;;;;;;28.75;20.73;;;10.30;94.00;;;;;;5065805;28;20147;-37
2021/03/26 08:55:32;;;;;;;30.60;20.85;;;10.30;93.90;;;;;;5046621;28;20029;-37
2021/03/26 08:58:10;;;;;;;28.08;19.15;;;10.40;93.70;;;;;;5064696;28;20040;-36
2021/03/26 09:00:57;;;;;;;29.85;20.67;;;10.50;93.50;;;;;;5066041;28;20499;-42
2021/03/26 09:03:52;;;;;;;35.15;22.80;;;10.60;93.40;;;;;;5064920;28;20438;-36
2021/03/26 09:06:36;;;;;;;38.17;23.42;;;10.60;93.10;;;;;;5066331;28;20033;-38
2021/03/26 09:09:29;;;;;;;30.27;21.77;;;10.70;92.90;;;;;;5065510;28;20077;-36
2021/03/26 09:12:08;;;;;;;32.88;21.58;;;10.80;93.00;;;;;;5065774;28;20029;-38
2021/03/26 09:14:50;;;;;;;30.92;21.10;;;10.80;92.80;;;;;;5065600;28;20071;-38
2021/03/26 09:17:23;;;;;;;26.63;20.52;;;10.90;92.70;;;;;;5065683;28;20444;-38
2021/03/26 09:20:05;;;;;;;31.77;21.02;;;11.00;92.70;;;;;;5066837;28;20028;-40
2021/03/26 09:23:02;;;;;;;30.95;22.17;;;11.10;92.50;;;;;;5065384;28;20460;-39
2021/03/26 09:25:40;;;;;;;30.58;21.25;;;11.20;92.20;;;;;;5057047;28;20079;-34
2021/03/26 09:28:21;;;;;;;26.67;19.15;;;11.30;92.10;;;;;;5065957;28;20016;-35
2021/03/26 09:30:58;;;;;;;27.70;19.77;;;11.40;91.90;;;;;;5063883;28;20032;-37
2021/03/26 09:33:23;;;;;;;30.67;20.02;;;11.50;91.80;;;;;;5065116;28;20869;-37
2021/03/26 09:35:55;;;;;;;25.67;18.45;;;11.60;91.70;;;;;;5065407;28;20120;-39
2021/03/26 09:38:48;;;;;;;24.33;17.63;;;11.80;92.00;;;;;;5065207;28;20035;-39
2021/03/26 09:41:23;;;;;;;26.42;18.73;;;12.10;91.50;;;;;;5065836;28;20020;-39
2021/03/26 09:44:05;;;;;;;25.70;16.77;;;12.20;91.20;;;;;;5064731;28;20040;-37
2021/03/26 09:46:53;;;;;;;26.73;16.75;;;12.40;90.30;;;;;;5065384;28;20035;-35
2021/03/26 09:49:38;;;;;;;23.35;14.80;;;12.40;89.80;;;;;;5065575;28;20395;-36
2021/03/26 09:52:27;;;;;;;19.65;14.40;;;12.30;89.80;;;;;;5051041;28;20063;-35
2021/03/26 09:55:00;;;;;;;24.98;14.85;;;12.30;89.90;;;;;;5064925;28;20128;-36
2021/03/26 09:57:46;;;;;;;16.80;11.60;;;12.40;88.80;;;;;;5065438;28;20195;-34
2021/03/26 10:00:21;;;;;;;16.00;10.82;;;12.40;89.00;;;;;;5064508;28;20124;-37
2021/03/26 10:02:58;;;;;;;17.15;11.82;;;12.50;89.10;;;;;;5065170;28;20131;-39
2021/03/26 10:06:10;;;;;;;16.40;10.70;;;12.70;88.30;;;;;;5064386;28;20028;-38
2021/03/26 10:11:29;;;;;;;18.58;12.48;;;13.00;86.60;;;;;;5054574;28;20020;-37
2021/03/26 10:14:01;;;;;;;17.30;12.10;;;13.20;85.10;;;;;;5064920;28;20047;-36
2021/03/26 10:16:46;;;;;;;21.10;12.00;;;13.30;84.90;;;;;;5054112;28;20475;-39
2021/03/26 10:19:39;;;;;;;18.98;10.85;;;13.50;84.10;;;;;;5064449;28;20297;-38
2021/03/26 10:22:37;;;;;;;13.77;10.10;;;13.60;81.90;;;;;;5062328;28;20033;-38
2021/03/26 10:25:29;;;;;;;16.25;10.35;;;13.70;80.60;;;;;;5063880;28;20141;-39
2021/03/26 10:28:03;;;;;;;16.77;9.80;;;13.70;79.80;;;;;;5064185;28;20025;-35
2021/03/26 10:30:43;;;;;;;13.80;9.63;;;13.70;79.80;;;;;;5062792;28;20024;-38
2021/03/26 10:33:15;;;;;;;16.80;10.00;;;13.80;80.40;;;;;;5062541;28;20518;-34
2021/03/26 10:36:10;;;;;;;17.00;8.50;;;13.90;79.60;;;;;;5064242;28;20028;-38
2021/03/26 10:38:49;;;;;;;11.82;7.18;;;13.90;79.50;;;;;;5044406;28;20024;-39
2021/03/26 10:41:31;;;;;;;10.82;7.03;;;14.00;79.60;;;;;;5061399;28;20056;-39
2021/03/26 10:44:18;;;;;;;10.47;7.10;;;14.10;78.70;;;;;;5064401;28;20043;-37
2021/03/26 10:46:51;;;;;;;8.60;5.88;;;14.20;77.60;;;;;;5063815;28;20278;-36
2021/03/26 10:49:23;;;;;;;8.63;6.38;;;14.20;78.00;;;;;;5064832;28;20090;-38
2021/03/26 10:51:52;;;;;;;10.02;5.63;;;14.30;76.70;;;;;;5064239;28;20058;-36
2021/03/26 10:54:27;;;;;;;10.73;5.32;;;14.30;75.20;;;;;;5064078;28;20626;-40
2021/03/26 10:57:31;;;;;;;8.32;5.10;;;14.20;74.80;;;;;;5064628;28;20417;-36
2021/03/26 11:00:06;;;;;;;14.05;5.22;;;14.30;74.50;;;;;;5044419;28;20214;-36
2021/03/26 11:02:59;;;;;;;9.98;5.03;;;14.30;73.80;;;;;;5061788;28;20066;-36
2021/03/26 11:05:37;;;;;;;6.88;4.63;;;14.40;74.10;;;;;;5064578;28;20065;-38
2021/03/26 11:08:02;;;;;;;9.43;4.45;;;14.50;74.60;;;;;;5064442;28;20918;-35
2021/03/26 11:10:42;;;;;;;7.20;4.13;;;14.50;73.60;;;;;;5064879;28;20041;-38
2021/03/26 11:13:26;;;;;;;7.25;3.85;;;14.60;72.30;;;;;;5064487;28;20041;-41
2021/03/26 11:15:58;;;;;;;7.68;3.97;;;14.60;73.50;;;;;;5064279;28;20043;-39
2021/03/26 11:18:56;;;;;;;5.67;3.67;;;14.70;72.00;;;;;;5063900;28;20040;-38
2021/03/26 11:21:24;;;;;;;6.05;3.50;;;14.70;72.30;;;;;;5064882;28;20016;-34
2021/03/26 11:24:03;;;;;;;8.13;4.35;;;14.70;72.30;;;;;;5063669;28;20028;-38
2021/03/26 11:26:36;;;;;;;8.65;4.28;;;14.70;70.90;;;;;;5063873;28;20468;-35
2021/03/26 11:29:12;;;;;;;8.10;3.83;;;14.70;70.20;;;;;;5063929;28;20058;-37
2021/03/26 11:31:48;;;;;;;7.28;4.10;;;14.60;71.30;;;;;;5063992;28;20139;-37
2021/03/26 11:34:25;;;;;;;7.50;3.33;;;14.70;70.10;;;;;;5064237;28;20033;-34
2021/03/26 11:36:53;;;;;;;9.32;3.67;;;14.60;71.10;;;;;;5063629;28;20118;-35
2021/03/26 11:39:34;;;;;;;15.13;3.55;;;14.60;71.50;;;;;;5066702;28;20051;-38
2021/03/26 11:42:08;;;;;;;7.53;3.70;;;14.70;71.50;;;;;;5067744;28;20025;-36
2021/03/26 11:44:39;;;;;;;7.10;3.70;;;14.70;70.00;;;;;;5067172;28;20020;-37
2021/03/26 11:47:28;;;;;;;11.82;4.50;;;14.80;70.10;;;;;;5067339;28;20016;-37
2021/03/26 11:50:24;;;;;;;5.55;3.42;;;14.80;69.60;;;;;;5067056;28;20819;-37
2021/03/26 11:53:08;;;;;;;5.68;3.40;;;14.90;68.10;;;;;;5067743;28;20129;-39
2021/03/26 11:55:40;;;;;;;6.47;3.38;;;14.90;69.50;;;;;;5067369;28;20027;-37
2021/03/26 11:58:26;;;;;;;6.07;3.22;;;14.90;69.60;;;;;;5067100;28;20044;-43
2021/03/26 12:01:02;;;;;;;8.40;3.53;;;14.90;69.00;;;;;;5067072;28;20067;-35
2021/03/26 12:03:41;;;;;;;5.82;3.00;;;15.00;68.50;;;;;;5067457;28;20056;-37
2021/03/26 12:06:20;;;;;;;5.18;2.92;;;15.00;68.70;;;;;;5066683;28;20025;-38
2021/03/26 12:09:27;;;;;;;9.27;3.50;;;15.00;68.80;;;;;;5064817;28;20375;-38
2021/03/26 12:11:53;;;;;;;5.82;2.97;;;15.00;67.20;;;;;;5042620;28;20029;-39
2021/03/26 12:14:26;;;;;;;6.47;3.10;;;15.10;68.50;;;;;;5063743;28;20040;-36
2021/03/26 12:17:04;;;;;;;5.63;3.30;;;15.00;67.50;;;;;;5067046;28;20356;-37
2021/03/26 12:19:33;;;;;;;6.43;2.65;;;15.00;66.70;;;;;;5065575;28;20158;-35
2021/03/26 12:22:19;;;;;;;4.82;2.92;;;15.00;67.60;;;;;;5065769;28;20375;-37
2021/03/26 12:24:48;;;;;;;5.95;3.20;;;15.00;67.80;;;;;;5066628;28;20468;-39
2021/03/26 12:27:25;;;;;;;6.55;3.25;;;15.10;67.40;;;;;;5066840;28;20032;-35
2021/03/26 12:30:10;;;;;;;7.07;2.97;;;15.10;67.70;;;;;;5065695;28;20033;-38
2021/03/26 12:32:45;;;;;;;6.30;3.47;;;15.20;67.80;;;;;;5065804;28;20440;-34
2021/03/26 12:35:36;;;;;;;7.47;3.25;;;15.10;67.50;;;;;;5066070;28;20024;-38
2021/03/26 12:38:32;;;;;;;7.35;3.70;;;15.10;67.00;;;;;;5064374;28;20131;-38
2021/03/26 12:41:20;;;;;;;5.47;3.30;;;15.10;66.20;;;;;;5064842;28;20017;-38
2021/03/26 12:44:01;;;;;;;7.68;4.50;;;15.20;66.30;;;;;;5066717;28;20021;-38
2021/03/26 12:47:02;;;;;;;6.15;3.58;;;15.20;66.20;;;;;;5055814;28;20017;-39
2021/03/26 12:49:43;;;;;;;6.18;3.60;;;15.30;66.70;;;;;;5066000;28;20077;-38
2021/03/26 12:52:32;;;;;;;5.90;3.90;;;15.30;66.10;;;;;;5066233;28;20032;-37
2021/03/26 12:55:20;;;;;;;4.63;3.45;;;15.30;66.00;;;;;;5065723;28;20082;-36
2021/03/26 12:58:04;;;;;;;8.65;4.05;;;15.30;66.60;;;;;;5066414;28;20036;-36
2021/03/26 13:01:06;;;;;;;5.13;3.50;;;15.40;65.10;;;;;;5065701;28;20097;-38
2021/03/26 13:03:56;;;;;;;6.95;3.90;;;15.60;66.20;;;;;;5045705;28;20025;-35
2021/03/26 13:06:33;;;;;;;7.53;3.70;;;15.70;65.70;;;;;;5065997;28;20043;-39
2021/03/26 13:09:29;;;;;;;7.60;4.13;;;15.80;65.80;;;;;;5066523;28;20048;-39
2021/03/26 13:12:10;;;;;;;6.45;4.00;;;15.90;64.70;;;;;;5062993;28;20373;-37
2021/03/26 13:14:54;;;;;;;8.38;4.35;;;15.90;64.00;;;;;;5065509;28;20044;-35
2021/03/26 13:17:26;;;;;;;6.50;3.90;;;15.90;64.20;;;;;;5066041;28;20032;-38
2021/03/26 13:20:06;;;;;;;7.90;4.30;;;15.90;63.60;;;;;;5065504;28;20428;-38
2021/03/26 13:22:45;;;;;;;8.38;4.32;;;15.80;62.40;;;;;;5065618;28;20086;-38
2021/03/26 13:25:31;;;;;;;6.93;4.35;;;15.70;63.40;;;;;;5065550;28;20085;-39
2021/03/26 13:27:56;;;;;;;5.25;3.40;;;15.70;64.60;;;;;;5056259;28;20028;-36
2021/03/26 13:30:27;;;;;;;8.23;3.85;;;15.80;64.60;;;;;;5065676;28;20035;-39
2021/03/26 13:32:58;;;;;;;8.57;4.07;;;16.00;63.50;;;;;;5065844;28;20032;-40
2021/03/26 13:35:26;;;;;;;7.20;3.70;;;16.00;62.70;;;;;;5065154;28;20048;-39
2021/03/26 13:38:00;;;;;;;7.32;4.00;;;16.00;63.30;;;;;;5065564;28;20131;-43
2021/03/26 13:40:27;;;;;;;6.03;3.72;;;15.90;62.90;;;;;;5065311;28;20046;-36
2021/03/26 13:43:05;;;;;;;6.32;3.63;;;15.90;63.60;;;;;;5065329;28;20116;-39
2021/03/26 13:45:33;;;;;;;9.90;4.40;;;15.90;63.60;;;;;;5065327;28;20020;-40